sensor_id;sensor_type;location;lat;lon;timestamp;temperature;humidity
50804;DHT22;37205;51.434;6.756;2022-09-09T00:01:08;16.10;99.90
50804;DHT22;37205;51.434;6.756;2022-09-09T00:03:44;16.10;99.90
50804;DHT22;37205;51.434;6.756;2022-09-09T00:09:13;16.10;99.90
50804;DHT22;37205;51.434;6.756;2022-09-09T00:11:51;16.10;99.90
50804;DHT22;37205;51.434;6.756;2022-09-09T00:14:24;16.10;99.90
50804;DHT22;37205;51.434;6.756;2022-09-09T00:16:55;16.10;99.90
50804;DHT22;37205;51.434;6.756;2022-09-09T00:19:33;16.10;99.90
50804;DHT22;37205;51.434;6.756;2022-09-09T00:22:17;16.10;99.90
50804;DHT22;37205;51.434;6.756;2022-09-09T00:24:46;16.10;99.90
50804;DHT22;37205;51.434;6.756;2022-09-09T00:27:19;16.10;99.90
50804;DHT22;37205;51.434;6.756;2022-09-09T00:30:00;16.00;99.90
50804;DHT22;37205;51.434;6.756;2022-09-09T00:32:30;16.00;99.90
50804;DHT22;37205;51.434;6.756;2022-09-09T00:35:48;16.00;99.90
50804;DHT22;37205;51.434;6.756;2022-09-09T00:37:51;16.00;99.90
50804;DHT22;37205;51.434;6.756;2022-09-09T00:40:32;16.00;99.90
50804;DHT22;37205;51.434;6.756;2022-09-09T00:43:09;16.00;99.90
50804;DHT22;37205;51.434;6.756;2022-09-09T00:48:21;16.00;99.90
50804;DHT22;37205;51.434;6.756;2022-09-09T00:50:55;16.00;99.90
50804;DHT22;37205;51.434;6.756;2022-09-09T00:53:24;16.00;99.90
50804;DHT22;37205;51.434;6.756;2022-09-09T00:56:06;16.00;99.90
50804;DHT22;37205;51.434;6.756;2022-09-09T00:58:34;16.00;99.90
50804;DHT22;37205;51.434;6.756;2022-09-09T01:01:06;15.90;99.90
50804;DHT22;37205;51.434;6.756;2022-09-09T01:03:55;16.00;99.90
50804;DHT22;37205;51.434;6.756;2022-09-09T01:06:34;15.90;99.90
50804;DHT22;37205;51.434;6.756;2022-09-09T01:12:01;16.00;99.90
50804;DHT22;37205;51.434;6.756;2022-09-09T01:17:13;15.90;99.90
50804;DHT22;37205;51.434;6.756;2022-09-09T01:28:00;15.90;99.90
50804;DHT22;37205;51.434;6.756;2022-09-09T01:30:28;15.80;99.90
50804;DHT22;37205;51.434;6.756;2022-09-09T01:32:56;15.80;99.90
50804;DHT22;37205;51.434;6.756;2022-09-09T01:35:44;15.80;99.90
50804;DHT22;37205;51.434;6.756;2022-09-09T01:38:10;15.80;99.90
50804;DHT22;37205;51.434;6.756;2022-09-09T01:40:36;15.80;99.90
50804;DHT22;37205;51.434;6.756;2022-09-09T01:43:02;15.70;99.90
50804;DHT22;37205;51.434;6.756;2022-09-09T01:45:29;15.80;99.90
50804;DHT22;37205;51.434;6.756;2022-09-09T01:47:55;15.70;99.90
50804;DHT22;37205;51.434;6.756;2022-09-09T01:50:22;15.70;99.90
50804;DHT22;37205;51.434;6.756;2022-09-09T01:52:55;15.70;99.90
50804;DHT22;37205;51.434;6.756;2022-09-09T01:55:30;15.70;99.90
50804;DHT22;37205;51.434;6.756;2022-09-09T01:58:37;15.70;99.90
50804;DHT22;37205;51.434;6.756;2022-09-09T02:01:17;15.60;99.90
50804;DHT22;37205;51.434;6.756;2022-09-09T02:03:52;15.70;99.90
50804;DHT22;37205;51.434;6.756;2022-09-09T02:08:57;15.60;99.90
50804;DHT22;37205;51.434;6.756;2022-09-09T02:11:27;15.70;99.90
50804;DHT22;37205;51.434;6.756;2022-09-09T02:14:04;15.60;99.90
50804;DHT22;37205;51.434;6.756;2022-09-09T02:16:42;15.60;99.90
50804;DHT22;37205;51.434;6.756;2022-09-09T02:19:23;15.60;99.90
50804;DHT22;37205;51.434;6.756;2022-09-09T02:21:53;15.70;99.90
50804;DHT22;37205;51.434;6.756;2022-09-09T02:24:20;15.70;99.90
50804;DHT22;37205;51.434;6.756;2022-09-09T02:26:49;15.70;99.90
50804;DHT22;37205;51.434;6.756;2022-09-09T02:29:23;15.70;99.90
50804;DHT22;37205;51.434;6.756;2022-09-09T02:31:51;15.70;99.90
50804;DHT22;37205;51.434;6.756;2022-09-09T02:34:22;15.70;99.90
50804;DHT22;37205;51.434;6.756;2022-09-09T02:36:50;15.80;99.90
50804;DHT22;37205;51.434;6.756;2022-09-09T02:39:17;15.80;99.90
50804;DHT22;37205;51.434;6.756;2022-09-09T02:41:43;15.80;99.90
50804;DHT22;37205;51.434;6.756;2022-09-09T02:44:15;15.80;99.90
50804;DHT22;37205;51.434;6.756;2022-09-09T02:46:57;15.80;99.90
50804;DHT22;37205;51.434;6.756;2022-09-09T02:52:27;15.70;99.90
50804;DHT22;37205;51.434;6.756;2022-09-09T02:55:02;15.70;99.90
50804;DHT22;37205;51.434;6.756;2022-09-09T02:57:30;15.70;99.90
50804;DHT22;37205;51.434;6.756;2022-09-09T02:59:57;15.70;99.90
50804;DHT22;37205;51.434;6.756;2022-09-09T03:02:24;15.70;99.90
50804;DHT22;37205;51.434;6.756;2022-09-09T03:04:50;15.70;99.90
50804;DHT22;37205;51.434;6.756;2022-09-09T03:07:18;15.70;99.90
50804;DHT22;37205;51.434;6.756;2022-09-09T03:09:44;15.70;99.90
50804;DHT22;37205;51.434;6.756;2022-09-09T03:12:10;15.70;99.90
50804;DHT22;37205;51.434;6.756;2022-09-09T03:14:37;15.70;99.90
50804;DHT22;37205;51.434;6.756;2022-09-09T03:17:04;15.70;99.90
50804;DHT22;37205;51.434;6.756;2022-09-09T03:19:30;15.70;99.90
50804;DHT22;37205;51.434;6.756;2022-09-09T03:21:55;15.70;99.90
50804;DHT22;37205;51.434;6.756;2022-09-09T03:24:21;15.70;99.90
50804;DHT22;37205;51.434;6.756;2022-09-09T03:26:48;15.70;99.90
50804;DHT22;37205;51.434;6.756;2022-09-09T03:29:14;15.70;99.90
50804;DHT22;37205;51.434;6.756;2022-09-09T03:31:40;15.70;99.90
50804;DHT22;37205;51.434;6.756;2022-09-09T03:34:06;15.70;99.90
50804;DHT22;37205;51.434;6.756;2022-09-09T03:36:32;15.70;99.90
50804;DHT22;37205;51.434;6.756;2022-09-09T03:38:58;15.70;99.90
50804;DHT22;37205;51.434;6.756;2022-09-09T03:41:25;15.80;99.90
50804;DHT22;37205;51.434;6.756;2022-09-09T03:43:51;15.80;99.90
50804;DHT22;37205;51.434;6.756;2022-09-09T03:46:18;15.80;99.90
50804;DHT22;37205;51.434;6.756;2022-09-09T03:48:44;15.80;99.90
50804;DHT22;37205;51.434;6.756;2022-09-09T03:51:09;15.80;99.90
50804;DHT22;37205;51.434;6.756;2022-09-09T03:53:36;15.70;99.90
50804;DHT22;37205;51.434;6.756;2022-09-09T03:56:04;15.80;99.90
50804;DHT22;37205;51.434;6.756;2022-09-09T03:58:32;15.80;99.90
50804;DHT22;37205;51.434;6.756;2022-09-09T04:01:04;15.80;99.90
50804;DHT22;37205;51.434;6.756;2022-09-09T04:03:30;15.80;99.90
50804;DHT22;37205;51.434;6.756;2022-09-09T04:05:57;15.80;99.90
50804;DHT22;37205;51.434;6.756;2022-09-09T04:08:23;15.80;99.90
50804;DHT22;37205;51.434;6.756;2022-09-09T04:10:53;15.80;99.90
50804;DHT22;37205;51.434;6.756;2022-09-09T04:13:22;15.70;99.90
50804;DHT22;37205;51.434;6.756;2022-09-09T04:15:58;15.80;99.90
50804;DHT22;37205;51.434;6.756;2022-09-09T04:18:25;15.80;99.90
50804;DHT22;37205;51.434;6.756;2022-09-09T04:20:52;15.80;99.90
50804;DHT22;37205;51.434;6.756;2022-09-09T04:23:18;15.80;99.90
50804;DHT22;37205;51.434;6.756;2022-09-09T04:25:46;15.70;99.90
50804;DHT22;37205;51.434;6.756;2022-09-09T04:28:13;15.80;99.90
50804;DHT22;37205;51.434;6.756;2022-09-09T04:30:42;15.80;99.90
50804;DHT22;37205;51.434;6.756;2022-09-09T04:33:08;15.80;99.90
50804;DHT22;37205;51.434;6.756;2022-09-09T04:35:35;15.80;99.90
50804;DHT22;37205;51.434;6.756;2022-09-09T04:38:01;15.80;99.90
50804;DHT22;37205;51.434;6.756;2022-09-09T04:40:28;15.80;99.90
50804;DHT22;37205;51.434;6.756;2022-09-09T04:42:55;15.80;99.90
50804;DHT22;37205;51.434;6.756;2022-09-09T04:45:21;15.80;99.90
50804;DHT22;37205;51.434;6.756;2022-09-09T04:47:46;15.80;99.90
50804;DHT22;37205;51.434;6.756;2022-09-09T04:50:12;15.80;99.90
50804;DHT22;37205;51.434;6.756;2022-09-09T04:52:38;15.90;99.90
50804;DHT22;37205;51.434;6.756;2022-09-09T04:55:04;15.90;99.90
50804;DHT22;37205;51.434;6.756;2022-09-09T04:57:29;15.90;99.90
50804;DHT22;37205;51.434;6.756;2022-09-09T04:59:58;15.90;99.90
50804;DHT22;37205;51.434;6.756;2022-09-09T05:02:25;15.90;99.90
50804;DHT22;37205;51.434;6.756;2022-09-09T05:04:51;15.90;99.90
50804;DHT22;37205;51.434;6.756;2022-09-09T05:07:17;15.90;99.90
50804;DHT22;37205;51.434;6.756;2022-09-09T05:09:42;15.90;99.90
50804;DHT22;37205;51.434;6.756;2022-09-09T05:12:08;15.90;99.90
50804;DHT22;37205;51.434;6.756;2022-09-09T05:14:34;15.90;99.90
50804;DHT22;37205;51.434;6.756;2022-09-09T05:17:03;15.90;99.90
50804;DHT22;37205;51.434;6.756;2022-09-09T05:19:28;15.90;99.90
50804;DHT22;37205;51.434;6.756;2022-09-09T05:21:54;15.90;99.90
50804;DHT22;37205;51.434;6.756;2022-09-09T05:24:19;15.90;99.90
50804;DHT22;37205;51.434;6.756;2022-09-09T05:26:45;15.90;99.90
50804;DHT22;37205;51.434;6.756;2022-09-09T05:29:10;15.90;99.90
50804;DHT22;37205;51.434;6.756;2022-09-09T05:31:36;16.00;99.90
50804;DHT22;37205;51.434;6.756;2022-09-09T05:34:02;16.00;99.90
50804;DHT22;37205;51.434;6.756;2022-09-09T05:36:27;16.00;99.90
50804;DHT22;37205;51.434;6.756;2022-09-09T05:38:53;16.00;99.90
50804;DHT22;37205;51.434;6.756;2022-09-09T05:41:22;16.00;99.90
50804;DHT22;37205;51.434;6.756;2022-09-09T05:43:48;16.00;99.90
50804;DHT22;37205;51.434;6.756;2022-09-09T05:46:17;16.00;99.90
50804;DHT22;37205;51.434;6.756;2022-09-09T05:48:44;16.00;99.90
50804;DHT22;37205;51.434;6.756;2022-09-09T05:51:14;16.00;99.90
50804;DHT22;37205;51.434;6.756;2022-09-09T05:53:43;16.00;99.90
50804;DHT22;37205;51.434;6.756;2022-09-09T05:56:14;16.10;99.90
50804;DHT22;37205;51.434;6.756;2022-09-09T05:58:40;16.10;99.90
50804;DHT22;37205;51.434;6.756;2022-09-09T06:01:15;16.10;99.90
50804;DHT22;37205;51.434;6.756;2022-09-09T06:03:42;16.10;99.90
50804;DHT22;37205;51.434;6.756;2022-09-09T06:06:11;16.20;99.90
50804;DHT22;37205;51.434;6.756;2022-09-09T06:08:38;16.20;99.90
50804;DHT22;37205;51.434;6.756;2022-09-09T06:11:07;16.20;99.90
50804;DHT22;37205;51.434;6.756;2022-09-09T06:13:33;16.30;99.90
50804;DHT22;37205;51.434;6.756;2022-09-09T06:15:59;16.30;99.90
50804;DHT22;37205;51.434;6.756;2022-09-09T06:18:25;16.30;99.90
50804;DHT22;37205;51.434;6.756;2022-09-09T06:23:20;16.40;99.90
50804;DHT22;37205;51.434;6.756;2022-09-09T06:25:46;16.40;99.90
50804;DHT22;37205;51.434;6.756;2022-09-09T06:28:12;16.50;99.90
50804;DHT22;37205;51.434;6.756;2022-09-09T06:30:38;16.50;99.90
50804;DHT22;37205;51.434;6.756;2022-09-09T06:33:05;16.50;99.90
50804;DHT22;37205;51.434;6.756;2022-09-09T06:35:30;16.60;99.90
50804;DHT22;37205;51.434;6.756;2022-09-09T06:37:56;16.60;99.90
50804;DHT22;37205;51.434;6.756;2022-09-09T06:40:24;16.70;99.90
50804;DHT22;37205;51.434;6.756;2022-09-09T06:42:50;16.70;99.90
50804;DHT22;37205;51.434;6.756;2022-09-09T06:45:15;16.80;99.90
50804;DHT22;37205;51.434;6.756;2022-09-09T06:47:42;16.80;99.90
50804;DHT22;37205;51.434;6.756;2022-09-09T06:50:08;16.90;99.90
50804;DHT22;37205;51.434;6.756;2022-09-09T06:52:35;16.90;99.90
50804;DHT22;37205;51.434;6.756;2022-09-09T06:55:01;16.90;99.90
50804;DHT22;37205;51.434;6.756;2022-09-09T06:57:27;17.00;99.90
50804;DHT22;37205;51.434;6.756;2022-09-09T06:59:53;17.00;99.90
50804;DHT22;37205;51.434;6.756;2022-09-09T07:02:19;17.00;99.90
50804;DHT22;37205;51.434;6.756;2022-09-09T07:04:44;17.10;99.90
50804;DHT22;37205;51.434;6.756;2022-09-09T07:07:10;17.10;99.90
50804;DHT22;37205;51.434;6.756;2022-09-09T07:09:37;17.10;99.90
50804;DHT22;37205;51.434;6.756;2022-09-09T07:12:03;17.10;99.90
50804;DHT22;37205;51.434;6.756;2022-09-09T07:14:31;17.10;99.90
50804;DHT22;37205;51.434;6.756;2022-09-09T07:16:58;17.10;99.90
50804;DHT22;37205;51.434;6.756;2022-09-09T07:19:23;17.10;99.90
50804;DHT22;37205;51.434;6.756;2022-09-09T07:21:49;17.20;99.90
50804;DHT22;37205;51.434;6.756;2022-09-09T07:24:15;17.30;99.90
50804;DHT22;37205;51.434;6.756;2022-09-09T07:26:41;17.30;99.90
50804;DHT22;37205;51.434;6.756;2022-09-09T07:29:07;17.40;99.90
50804;DHT22;37205;51.434;6.756;2022-09-09T07:31:38;17.40;99.90
50804;DHT22;37205;51.434;6.756;2022-09-09T07:34:08;17.40;99.90
50804;DHT22;37205;51.434;6.756;2022-09-09T07:36:36;17.40;99.90
50804;DHT22;37205;51.434;6.756;2022-09-09T07:39:08;17.40;99.90
50804;DHT22;37205;51.434;6.756;2022-09-09T07:41:37;17.50;99.90
50804;DHT22;37205;51.434;6.756;2022-09-09T07:44:08;17.50;99.90
50804;DHT22;37205;51.434;6.756;2022-09-09T07:46:36;17.50;99.90
50804;DHT22;37205;51.434;6.756;2022-09-09T07:49:03;17.60;99.90
50804;DHT22;37205;51.434;6.756;2022-09-09T07:51:33;17.60;99.90
50804;DHT22;37205;51.434;6.756;2022-09-09T07:54:01;17.60;99.90
50804;DHT22;37205;51.434;6.756;2022-09-09T07:56:28;17.70;99.90
50804;DHT22;37205;51.434;6.756;2022-09-09T07:58:55;17.70;99.90
50804;DHT22;37205;51.434;6.756;2022-09-09T08:03:55;17.80;99.90
50804;DHT22;37205;51.434;6.756;2022-09-09T08:06:21;17.90;99.90
50804;DHT22;37205;51.434;6.756;2022-09-09T08:08:50;17.90;99.90
50804;DHT22;37205;51.434;6.756;2022-09-09T08:11:16;17.90;99.90
50804;DHT22;37205;51.434;6.756;2022-09-09T08:13:43;18.00;99.90
50804;DHT22;37205;51.434;6.756;2022-09-09T08:16:14;18.00;99.90
50804;DHT22;37205;51.434;6.756;2022-09-09T08:18:40;18.10;99.90
50804;DHT22;37205;51.434;6.756;2022-09-09T08:21:12;18.20;99.90
50804;DHT22;37205;51.434;6.756;2022-09-09T08:23:39;18.20;99.90
50804;DHT22;37205;51.434;6.756;2022-09-09T08:26:24;18.20;99.90
50804;DHT22;37205;51.434;6.756;2022-09-09T08:28:52;18.30;99.90
50804;DHT22;37205;51.434;6.756;2022-09-09T08:31:19;18.30;99.90
50804;DHT22;37205;51.434;6.756;2022-09-09T08:33:45;18.30;99.90
50804;DHT22;37205;51.434;6.756;2022-09-09T08:36:17;18.30;99.90
50804;DHT22;37205;51.434;6.756;2022-09-09T08:38:43;18.30;99.90
50804;DHT22;37205;51.434;6.756;2022-09-09T08:44:08;18.50;99.90
50804;DHT22;37205;51.434;6.756;2022-09-09T08:53:00;18.70;99.90
50804;DHT22;37205;51.434;6.756;2022-09-09T08:55:37;18.80;99.90
50804;DHT22;37205;51.434;6.756;2022-09-09T09:06:39;19.10;99.90
50804;DHT22;37205;51.434;6.756;2022-09-09T09:09:38;19.10;99.90
50804;DHT22;37205;51.434;6.756;2022-09-09T09:12:20;19.20;99.90
50804;DHT22;37205;51.434;6.756;2022-09-09T09:14:47;19.20;99.90
50804;DHT22;37205;51.434;6.756;2022-09-09T09:17:21;19.20;99.90
50804;DHT22;37205;51.434;6.756;2022-09-09T09:19:48;19.10;99.90
50804;DHT22;37205;51.434;6.756;2022-09-09T09:22:23;19.20;99.90
50804;DHT22;37205;51.434;6.756;2022-09-09T09:28:02;19.10;99.90
50804;DHT22;37205;51.434;6.756;2022-09-09T09:30:39;19.10;99.90
50804;DHT22;37205;51.434;6.756;2022-09-09T09:35:59;19.10;99.90
50804;DHT22;37205;51.434;6.756;2022-09-09T09:38:27;19.00;99.90
50804;DHT22;37205;51.434;6.756;2022-09-09T09:40:55;19.00;99.90
50804;DHT22;37205;51.434;6.756;2022-09-09T09:43:33;19.00;99.90
50804;DHT22;37205;51.434;6.756;2022-09-09T09:46:00;19.00;99.90
50804;DHT22;37205;51.434;6.756;2022-09-09T09:48:27;19.10;99.90
50804;DHT22;37205;51.434;6.756;2022-09-09T09:51:13;19.10;99.90
50804;DHT22;37205;51.434;6.756;2022-09-09T09:53:42;19.20;99.90
50804;DHT22;37205;51.434;6.756;2022-09-09T09:56:16;19.10;99.90
50804;DHT22;37205;51.434;6.756;2022-09-09T09:58:51;19.20;99.90
50804;DHT22;37205;51.434;6.756;2022-09-09T10:01:24;19.20;99.90
50804;DHT22;37205;51.434;6.756;2022-09-09T10:03:58;19.20;99.90
50804;DHT22;37205;51.434;6.756;2022-09-09T10:06:34;19.30;99.90
50804;DHT22;37205;51.434;6.756;2022-09-09T10:09:01;19.30;99.90
50804;DHT22;37205;51.434;6.756;2022-09-09T10:11:49;19.50;99.90
50804;DHT22;37205;51.434;6.756;2022-09-09T10:19:29;19.70;99.90
50804;DHT22;37205;51.434;6.756;2022-09-09T10:22:25;19.80;99.90
50804;DHT22;37205;51.434;6.756;2022-09-09T10:27:58;19.90;99.90
50804;DHT22;37205;51.434;6.756;2022-09-09T10:30:44;19.80;99.90
50804;DHT22;37205;51.434;6.756;2022-09-09T10:39:01;19.80;99.90
50804;DHT22;37205;51.434;6.756;2022-09-09T10:44:24;19.70;99.90
50804;DHT22;37205;51.434;6.756;2022-09-09T10:52:24;19.70;99.90
50804;DHT22;37205;51.434;6.756;2022-09-09T10:55:11;19.70;99.90
50804;DHT22;37205;51.434;6.756;2022-09-09T10:57:44;19.60;99.90
50804;DHT22;37205;51.434;6.756;2022-09-09T11:00:19;19.60;99.90
50804;DHT22;37205;51.434;6.756;2022-09-09T11:02:52;19.70;99.90
50804;DHT22;37205;51.434;6.756;2022-09-09T11:05:27;19.70;99.90
50804;DHT22;37205;51.434;6.756;2022-09-09T11:08:30;19.80;99.90
50804;DHT22;37205;51.434;6.756;2022-09-09T11:11:34;19.80;99.90
50804;DHT22;37205;51.434;6.756;2022-09-09T11:14:30;19.80;99.90
50804;DHT22;37205;51.434;6.756;2022-09-09T11:16:59;19.90;99.90
50804;DHT22;37205;51.434;6.756;2022-09-09T11:19:39;19.90;99.90
50804;DHT22;37205;51.434;6.756;2022-09-09T11:22:15;19.90;99.90
50804;DHT22;37205;51.434;6.756;2022-09-09T11:24:54;19.90;99.90
50804;DHT22;37205;51.434;6.756;2022-09-09T11:27:27;19.90;99.90
50804;DHT22;37205;51.434;6.756;2022-09-09T11:33:08;20.10;99.90
50804;DHT22;37205;51.434;6.756;2022-09-09T11:38:47;20.10;99.90
50804;DHT22;37205;51.434;6.756;2022-09-09T11:41:18;20.20;99.90
50804;DHT22;37205;51.434;6.756;2022-09-09T11:43:51;20.30;99.90
50804;DHT22;37205;51.434;6.756;2022-09-09T11:46:19;20.30;99.90
50804;DHT22;37205;51.434;6.756;2022-09-09T11:48:58;20.40;99.90
50804;DHT22;37205;51.434;6.756;2022-09-09T11:51:27;20.40;99.90
50804;DHT22;37205;51.434;6.756;2022-09-09T11:53:57;20.30;99.90
50804;DHT22;37205;51.434;6.756;2022-09-09T11:59:04;20.30;99.90
50804;DHT22;37205;51.434;6.756;2022-09-09T12:01:37;20.30;99.90
50804;DHT22;37205;51.434;6.756;2022-09-09T12:04:25;20.40;99.90
50804;DHT22;37205;51.434;6.756;2022-09-09T12:07:05;20.40;99.90
50804;DHT22;37205;51.434;6.756;2022-09-09T12:10:17;20.40;99.90
50804;DHT22;37205;51.434;6.756;2022-09-09T12:12:44;20.50;99.90
50804;DHT22;37205;51.434;6.756;2022-09-09T12:17:57;20.40;99.90
50804;DHT22;37205;51.434;6.756;2022-09-09T12:20:37;20.40;99.90
50804;DHT22;37205;51.434;6.756;2022-09-09T12:26:01;20.50;99.90
50804;DHT22;37205;51.434;6.756;2022-09-09T12:29:23;20.60;99.90
50804;DHT22;37205;51.434;6.756;2022-09-09T12:31:50;20.60;99.90
50804;DHT22;37205;51.434;6.756;2022-09-09T12:37:35;20.40;99.90
50804;DHT22;37205;51.434;6.756;2022-09-09T12:40:05;20.40;99.90
50804;DHT22;37205;51.434;6.756;2022-09-09T12:42:31;20.20;99.90
50804;DHT22;37205;51.434;6.756;2022-09-09T12:45:14;20.10;99.90
50804;DHT22;37205;51.434;6.756;2022-09-09T12:50:20;19.90;99.90
50804;DHT22;37205;51.434;6.756;2022-09-09T12:52:47;19.80;99.90
50804;DHT22;37205;51.434;6.756;2022-09-09T12:55:21;19.70;99.90
50804;DHT22;37205;51.434;6.756;2022-09-09T12:57:51;19.60;99.90
50804;DHT22;37205;51.434;6.756;2022-09-09T13:00:21;19.50;99.90
50804;DHT22;37205;51.434;6.756;2022-09-09T13:02:54;19.50;99.90
50804;DHT22;37205;51.434;6.756;2022-09-09T13:05:36;19.20;99.90
50804;DHT22;37205;51.434;6.756;2022-09-09T13:08:12;19.10;99.90
50804;DHT22;37205;51.434;6.756;2022-09-09T13:10:43;18.80;99.90
50804;DHT22;37205;51.434;6.756;2022-09-09T13:13:17;18.80;99.90
50804;DHT22;37205;51.434;6.756;2022-09-09T13:15:56;18.70;99.90
50804;DHT22;37205;51.434;6.756;2022-09-09T13:18:25;18.70;99.90
50804;DHT22;37205;51.434;6.756;2022-09-09T13:20:52;18.70;99.90
50804;DHT22;37205;51.434;6.756;2022-09-09T13:23:19;18.70;99.90
50804;DHT22;37205;51.434;6.756;2022-09-09T13:26:00;18.80;99.90
50804;DHT22;37205;51.434;6.756;2022-09-09T13:28:28;18.80;99.90
50804;DHT22;37205;51.434;6.756;2022-09-09T13:31:02;18.90;99.90
50804;DHT22;37205;51.434;6.756;2022-09-09T13:33:33;19.00;99.90
50804;DHT22;37205;51.434;6.756;2022-09-09T13:36:01;19.10;99.90
50804;DHT22;37205;51.434;6.756;2022-09-09T13:38:29;19.10;99.90
50804;DHT22;37205;51.434;6.756;2022-09-09T13:40:58;19.20;99.90
50804;DHT22;37205;51.434;6.756;2022-09-09T13:43:26;19.20;99.90
50804;DHT22;37205;51.434;6.756;2022-09-09T13:45:54;19.20;99.90
50804;DHT22;37205;51.434;6.756;2022-09-09T13:48:19;19.20;99.90
50804;DHT22;37205;51.434;6.756;2022-09-09T13:51:03;19.30;99.90
50804;DHT22;37205;51.434;6.756;2022-09-09T13:53:32;19.50;99.90
50804;DHT22;37205;51.434;6.756;2022-09-09T13:55:58;19.70;99.90
50804;DHT22;37205;51.434;6.756;2022-09-09T13:58:25;19.80;99.90
50804;DHT22;37205;51.434;6.756;2022-09-09T14:00:52;20.00;99.90
50804;DHT22;37205;51.434;6.756;2022-09-09T14:03:19;20.20;99.90
50804;DHT22;37205;51.434;6.756;2022-09-09T14:05:45;20.40;99.90
50804;DHT22;37205;51.434;6.756;2022-09-09T14:08:20;20.40;99.90
50804;DHT22;37205;51.434;6.756;2022-09-09T14:10:47;20.40;99.90
50804;DHT22;37205;51.434;6.756;2022-09-09T14:13:12;20.30;99.90
50804;DHT22;37205;51.434;6.756;2022-09-09T14:15:38;20.20;99.90
50804;DHT22;37205;51.434;6.756;2022-09-09T14:18:04;20.10;99.90
50804;DHT22;37205;51.434;6.756;2022-09-09T14:20:32;20.10;99.90
50804;DHT22;37205;51.434;6.756;2022-09-09T14:22:58;20.10;99.90
50804;DHT22;37205;51.434;6.756;2022-09-09T14:25:24;20.10;99.90
50804;DHT22;37205;51.434;6.756;2022-09-09T14:27:49;20.20;99.90
50804;DHT22;37205;51.434;6.756;2022-09-09T14:30:16;20.20;99.90
50804;DHT22;37205;51.434;6.756;2022-09-09T14:32:42;20.20;99.90
50804;DHT22;37205;51.434;6.756;2022-09-09T14:35:08;20.20;99.90
50804;DHT22;37205;51.434;6.756;2022-09-09T14:37:34;20.10;99.90
50804;DHT22;37205;51.434;6.756;2022-09-09T14:40:00;20.00;99.90
50804;DHT22;37205;51.434;6.756;2022-09-09T14:42:25;19.60;99.90
50804;DHT22;37205;51.434;6.756;2022-09-09T14:44:52;19.00;99.90
50804;DHT22;37205;51.434;6.756;2022-09-09T14:47:17;18.50;99.90
50804;DHT22;37205;51.434;6.756;2022-09-09T14:49:43;18.20;99.90
50804;DHT22;37205;51.434;6.756;2022-09-09T14:52:08;18.00;99.90
50804;DHT22;37205;51.434;6.756;2022-09-09T14:54:34;17.70;99.90
50804;DHT22;37205;51.434;6.756;2022-09-09T14:57:00;17.50;99.90
50804;DHT22;37205;51.434;6.756;2022-09-09T14:59:25;17.30;99.90
50804;DHT22;37205;51.434;6.756;2022-09-09T15:01:52;17.30;99.90
50804;DHT22;37205;51.434;6.756;2022-09-09T15:04:18;17.20;99.90
50804;DHT22;37205;51.434;6.756;2022-09-09T15:06:44;17.10;99.90
50804;DHT22;37205;51.434;6.756;2022-09-09T15:09:13;17.10;99.90
50804;DHT22;37205;51.434;6.756;2022-09-09T15:11:39;17.10;99.90
50804;DHT22;37205;51.434;6.756;2022-09-09T15:14:06;17.00;99.90
50804;DHT22;37205;51.434;6.756;2022-09-09T15:16:32;17.00;99.90
50804;DHT22;37205;51.434;6.756;2022-09-09T15:18:59;17.00;99.90
50804;DHT22;37205;51.434;6.756;2022-09-09T15:21:33;17.00;99.90
50804;DHT22;37205;51.434;6.756;2022-09-09T15:24:00;16.90;99.90
50804;DHT22;37205;51.434;6.756;2022-09-09T15:26:26;16.90;99.90
50804;DHT22;37205;51.434;6.756;2022-09-09T15:28:52;17.00;99.90
50804;DHT22;37205;51.434;6.756;2022-09-09T15:31:23;17.30;99.90
50804;DHT22;37205;51.434;6.756;2022-09-09T15:33:54;17.50;99.90
50804;DHT22;37205;51.434;6.756;2022-09-09T15:36:28;17.70;99.90
50804;DHT22;37205;51.434;6.756;2022-09-09T15:38:58;17.80;99.90
50804;DHT22;37205;51.434;6.756;2022-09-09T15:41:24;18.00;99.90
50804;DHT22;37205;51.434;6.756;2022-09-09T15:43:51;18.20;99.90
50804;DHT22;37205;51.434;6.756;2022-09-09T15:48:44;18.40;99.90
50804;DHT22;37205;51.434;6.756;2022-09-09T15:51:10;18.50;99.90
50804;DHT22;37205;51.434;6.756;2022-09-09T15:53:37;18.50;99.90
50804;DHT22;37205;51.434;6.756;2022-09-09T15:56:05;18.50;99.90
50804;DHT22;37205;51.434;6.756;2022-09-09T15:58:32;18.60;99.90
50804;DHT22;37205;51.434;6.756;2022-09-09T16:01:07;18.60;99.90
50804;DHT22;37205;51.434;6.756;2022-09-09T16:03:38;18.60;99.90
50804;DHT22;37205;51.434;6.756;2022-09-09T16:06:04;18.70;99.90
50804;DHT22;37205;51.434;6.756;2022-09-09T16:08:38;18.70;99.90
50804;DHT22;37205;51.434;6.756;2022-09-09T16:11:12;18.60;99.90
50804;DHT22;37205;51.434;6.756;2022-09-09T16:13:40;18.50;99.90
50804;DHT22;37205;51.434;6.756;2022-09-09T16:16:07;18.50;99.90
50804;DHT22;37205;51.434;6.756;2022-09-09T16:18:36;18.50;99.90
50804;DHT22;37205;51.434;6.756;2022-09-09T16:21:02;18.40;99.90
50804;DHT22;37205;51.434;6.756;2022-09-09T16:23:40;18.40;99.90
50804;DHT22;37205;51.434;6.756;2022-09-09T16:26:05;18.20;99.90
50804;DHT22;37205;51.434;6.756;2022-09-09T16:28:31;18.20;99.90
50804;DHT22;37205;51.434;6.756;2022-09-09T16:30:57;18.20;99.90
50804;DHT22;37205;51.434;6.756;2022-09-09T16:33:23;18.20;99.90
50804;DHT22;37205;51.434;6.756;2022-09-09T16:35:49;18.10;99.90
50804;DHT22;37205;51.434;6.756;2022-09-09T16:38:15;18.10;99.90
50804;DHT22;37205;51.434;6.756;2022-09-09T16:40:41;18.10;99.90
50804;DHT22;37205;51.434;6.756;2022-09-09T16:43:07;18.10;99.90
50804;DHT22;37205;51.434;6.756;2022-09-09T16:45:34;18.10;99.90
50804;DHT22;37205;51.434;6.756;2022-09-09T16:48:06;18.10;99.90
50804;DHT22;37205;51.434;6.756;2022-09-09T16:50:34;18.20;99.90
50804;DHT22;37205;51.434;6.756;2022-09-09T16:53:00;18.10;99.90
50804;DHT22;37205;51.434;6.756;2022-09-09T16:55:29;18.10;99.90
50804;DHT22;37205;51.434;6.756;2022-09-09T16:57:55;18.10;99.90
50804;DHT22;37205;51.434;6.756;2022-09-09T17:00:20;18.10;99.90
50804;DHT22;37205;51.434;6.756;2022-09-09T17:02:48;18.10;99.90
50804;DHT22;37205;51.434;6.756;2022-09-09T17:05:14;18.10;99.90
50804;DHT22;37205;51.434;6.756;2022-09-09T17:07:39;18.10;99.90
50804;DHT22;37205;51.434;6.756;2022-09-09T17:10:06;18.10;99.90
50804;DHT22;37205;51.434;6.756;2022-09-09T17:12:32;18.10;99.90
50804;DHT22;37205;51.434;6.756;2022-09-09T17:14:58;18.00;99.90
50804;DHT22;37205;51.434;6.756;2022-09-09T17:17:27;18.00;99.90
50804;DHT22;37205;51.434;6.756;2022-09-09T17:19:53;18.00;99.90
50804;DHT22;37205;51.434;6.756;2022-09-09T17:22:19;18.00;99.90
50804;DHT22;37205;51.434;6.756;2022-09-09T17:24:45;17.90;99.90
50804;DHT22;37205;51.434;6.756;2022-09-09T17:27:11;18.00;99.90